sensor_id;sensor_type;location;lat;lon;timestamp;P1;durP1;ratioP1;P2;durP2;ratioP2
75535;SDS011;64119;52.070;20.804;2023-04-09T00:01:37;12.30;;;6.90;;
75535;SDS011;64119;52.070;20.804;2023-04-09T00:04:04;10.70;;;6.40;;
75535;SDS011;64119;52.070;20.804;2023-04-09T00:06:30;10.40;;;6.20;;
75535;SDS011;64119;52.070;20.804;2023-04-09T00:08:57;10.70;;;6.40;;
75535;SDS011;64119;52.070;20.804;2023-04-09T00:11:23;12.30;;;7.00;;
75535;SDS011;64119;52.070;20.804;2023-04-09T00:13:50;11.70;;;6.60;;
75535;SDS011;64119;52.070;20.804;2023-04-09T00:16:17;11.70;;;6.60;;
75535;SDS011;64119;52.070;20.804;2023-04-09T00:18:43;9.90;;;6.30;;
75535;SDS011;64119;52.070;20.804;2023-04-09T00:21:09;12.50;;;7.30;;
75535;SDS011;64119;52.070;20.804;2023-04-09T00:23:36;12.30;;;7.20;;
75535;SDS011;64119;52.070;20.804;2023-04-09T00:26:02;10.40;;;6.10;;
75535;SDS011;64119;52.070;20.804;2023-04-09T00:28:29;11.30;;;7.30;;
75535;SDS011;64119;52.070;20.804;2023-04-09T00:30:55;11.80;;;6.20;;
75535;SDS011;64119;52.070;20.804;2023-04-09T00:33:22;9.90;;;5.90;;
75535;SDS011;64119;52.070;20.804;2023-04-09T00:35:48;11.50;;;6.70;;
75535;SDS011;64119;52.070;20.804;2023-04-09T00:38:15;12.10;;;7.40;;
75535;SDS011;64119;52.070;20.804;2023-04-09T00:40:41;14.10;;;6.90;;
75535;SDS011;64119;52.070;20.804;2023-04-09T00:43:07;9.00;;;5.90;;
75535;SDS011;64119;52.070;20.804;2023-04-09T00:45:34;11.70;;;7.10;;
75535;SDS011;64119;52.070;20.804;2023-04-09T00:48:01;10.90;;;6.70;;
75535;SDS011;64119;52.070;20.804;2023-04-09T00:50:28;10.50;;;5.70;;
75535;SDS011;64119;52.070;20.804;2023-04-09T00:52:54;12.70;;;7.00;;
75535;SDS011;64119;52.070;20.804;2023-04-09T00:55:21;12.40;;;6.80;;
75535;SDS011;64119;52.070;20.804;2023-04-09T00:57:47;11.60;;;6.30;;
75535;SDS011;64119;52.070;20.804;2023-04-09T01:00:14;9.00;;;5.50;;
75535;SDS011;64119;52.070;20.804;2023-04-09T01:02:40;10.30;;;6.20;;
75535;SDS011;64119;52.070;20.804;2023-04-09T01:05:08;10.60;;;6.60;;
75535;SDS011;64119;52.070;20.804;2023-04-09T01:12:53;9.50;;;5.30;;
75535;SDS011;64119;52.070;20.804;2023-04-09T01:15:30;13.70;;;7.50;;
75535;SDS011;64119;52.070;20.804;2023-04-09T01:18:03;9.30;;;6.10;;
75535;SDS011;64119;52.070;20.804;2023-04-09T01:20:40;12.30;;;6.20;;
75535;SDS011;64119;52.070;20.804;2023-04-09T01:23:13;10.90;;;6.50;;
75535;SDS011;64119;52.070;20.804;2023-04-09T01:28:44;11.40;;;6.30;;
75535;SDS011;64119;52.070;20.804;2023-04-09T01:31:13;12.20;;;7.30;;
75535;SDS011;64119;52.070;20.804;2023-04-09T01:36:09;8.90;;;5.20;;
75535;SDS011;64119;52.070;20.804;2023-04-09T01:38:38;11.30;;;7.00;;
75535;SDS011;64119;52.070;20.804;2023-04-09T01:41:06;12.40;;;7.30;;
75535;SDS011;64119;52.070;20.804;2023-04-09T01:43:36;12.00;;;7.30;;
75535;SDS011;64119;52.070;20.804;2023-04-09T01:46:03;11.50;;;6.80;;
75535;SDS011;64119;52.070;20.804;2023-04-09T01:48:30;12.10;;;7.30;;
75535;SDS011;64119;52.070;20.804;2023-04-09T01:50:58;10.50;;;6.50;;
75535;SDS011;64119;52.070;20.804;2023-04-09T01:53:24;8.40;;;5.10;;
75535;SDS011;64119;52.070;20.804;2023-04-09T01:55:54;11.50;;;6.40;;
75535;SDS011;64119;52.070;20.804;2023-04-09T01:58:24;12.30;;;6.80;;
75535;SDS011;64119;52.070;20.804;2023-04-09T02:00:53;11.00;;;5.70;;
75535;SDS011;64119;52.070;20.804;2023-04-09T02:03:24;11.60;;;7.10;;
75535;SDS011;64119;52.070;20.804;2023-04-09T02:05:59;12.30;;;7.10;;
75535;SDS011;64119;52.070;20.804;2023-04-09T02:08:33;10.60;;;6.20;;
75535;SDS011;64119;52.070;20.804;2023-04-09T02:11:02;10.70;;;6.70;;
75535;SDS011;64119;52.070;20.804;2023-04-09T02:13:35;11.70;;;7.00;;
75535;SDS011;64119;52.070;20.804;2023-04-09T02:16:03;11.40;;;6.40;;
75535;SDS011;64119;52.070;20.804;2023-04-09T02:18:31;10.60;;;6.10;;
75535;SDS011;64119;52.070;20.804;2023-04-09T02:20:58;9.80;;;5.90;;
75535;SDS011;64119;52.070;20.804;2023-04-09T02:23:25;11.70;;;6.40;;
75535;SDS011;64119;52.070;20.804;2023-04-09T02:25:52;10.30;;;5.70;;
75535;SDS011;64119;52.070;20.804;2023-04-09T02:28:19;11.30;;;6.50;;
75535;SDS011;64119;52.070;20.804;2023-04-09T02:30:45;15.80;;;7.90;;
75535;SDS011;64119;52.070;20.804;2023-04-09T02:33:12;12.60;;;7.70;;
75535;SDS011;64119;52.070;20.804;2023-04-09T02:35:39;10.30;;;6.40;;
75535;SDS011;64119;52.070;20.804;2023-04-09T02:38:07;11.10;;;7.20;;
75535;SDS011;64119;52.070;20.804;2023-04-09T02:40:39;10.70;;;6.10;;
75535;SDS011;64119;52.070;20.804;2023-04-09T02:43:06;13.20;;;7.00;;
75535;SDS011;64119;52.070;20.804;2023-04-09T02:45:33;13.10;;;7.50;;
75535;SDS011;64119;52.070;20.804;2023-04-09T02:48:00;14.50;;;7.10;;
75535;SDS011;64119;52.070;20.804;2023-04-09T02:50:27;13.80;;;7.50;;
75535;SDS011;64119;52.070;20.804;2023-04-09T02:52:55;14.50;;;7.70;;
75535;SDS011;64119;52.070;20.804;2023-04-09T02:55:21;15.20;;;7.40;;
75535;SDS011;64119;52.070;20.804;2023-04-09T02:57:48;16.50;;;7.90;;
75535;SDS011;64119;52.070;20.804;2023-04-09T03:00:14;14.70;;;7.70;;
75535;SDS011;64119;52.070;20.804;2023-04-09T03:02:41;13.70;;;7.20;;
75535;SDS011;64119;52.070;20.804;2023-04-09T03:05:08;13.90;;;7.50;;
75535;SDS011;64119;52.070;20.804;2023-04-09T03:07:34;11.20;;;7.20;;
75535;SDS011;64119;52.070;20.804;2023-04-09T03:10:00;13.40;;;7.40;;
75535;SDS011;64119;52.070;20.804;2023-04-09T03:12:27;10.10;;;6.70;;
75535;SDS011;64119;52.070;20.804;2023-04-09T03:14:53;14.30;;;7.60;;
75535;SDS011;64119;52.070;20.804;2023-04-09T03:17:20;11.00;;;6.90;;
75535;SDS011;64119;52.070;20.804;2023-04-09T03:19:47;11.70;;;5.90;;
75535;SDS011;64119;52.070;20.804;2023-04-09T03:22:15;11.00;;;6.20;;
75535;SDS011;64119;52.070;20.804;2023-04-09T03:24:41;10.90;;;6.10;;
75535;SDS011;64119;52.070;20.804;2023-04-09T03:27:08;12.20;;;7.50;;
75535;SDS011;64119;52.070;20.804;2023-04-09T03:29:34;14.00;;;7.20;;
75535;SDS011;64119;52.070;20.804;2023-04-09T03:32:01;10.60;;;7.00;;
75535;SDS011;64119;52.070;20.804;2023-04-09T03:34:27;13.70;;;7.90;;
75535;SDS011;64119;52.070;20.804;2023-04-09T03:36:55;15.10;;;8.30;;
75535;SDS011;64119;52.070;20.804;2023-04-09T03:41:51;13.60;;;7.30;;
75535;SDS011;64119;52.070;20.804;2023-04-09T03:44:18;17.30;;;8.10;;
75535;SDS011;64119;52.070;20.804;2023-04-09T03:47:13;13.60;;;8.20;;
75535;SDS011;64119;52.070;20.804;2023-04-09T03:49:40;15.00;;;8.90;;
75535;SDS011;64119;52.070;20.804;2023-04-09T03:52:17;15.30;;;8.50;;
75535;SDS011;64119;52.070;20.804;2023-04-09T03:54:46;12.40;;;7.40;;
75535;SDS011;64119;52.070;20.804;2023-04-09T03:57:17;11.00;;;6.60;;
75535;SDS011;64119;52.070;20.804;2023-04-09T03:59:44;10.90;;;7.00;;
75535;SDS011;64119;52.070;20.804;2023-04-09T04:02:11;12.10;;;7.00;;
75535;SDS011;64119;52.070;20.804;2023-04-09T04:04:41;14.20;;;7.80;;
75535;SDS011;64119;52.070;20.804;2023-04-09T04:07:08;14.80;;;8.40;;
75535;SDS011;64119;52.070;20.804;2023-04-09T04:09:39;13.10;;;7.40;;
75535;SDS011;64119;52.070;20.804;2023-04-09T04:12:09;14.10;;;8.30;;
75535;SDS011;64119;52.070;20.804;2023-04-09T04:14:44;14.20;;;8.40;;
75535;SDS011;64119;52.070;20.804;2023-04-09T04:17:21;13.90;;;7.00;;
75535;SDS011;64119;52.070;20.804;2023-04-09T04:19:48;14.30;;;8.20;;
75535;SDS011;64119;52.070;20.804;2023-04-09T04:22:15;13.60;;;9.10;;
75535;SDS011;64119;52.070;20.804;2023-04-09T04:24:43;15.50;;;9.70;;
75535;SDS011;64119;52.070;20.804;2023-04-09T04:27:13;14.40;;;9.20;;
75535;SDS011;64119;52.070;20.804;2023-04-09T04:29:40;13.40;;;8.40;;
75535;SDS011;64119;52.070;20.804;2023-04-09T04:32:19;14.00;;;8.00;;
75535;SDS011;64119;52.070;20.804;2023-04-09T04:34:47;13.90;;;7.90;;
75535;SDS011;64119;52.070;20.804;2023-04-09T04:37:20;16.40;;;8.90;;
75535;SDS011;64119;52.070;20.804;2023-04-09T04:39:47;15.90;;;8.30;;
75535;SDS011;64119;52.070;20.804;2023-04-09T04:42:15;13.00;;;7.10;;
75535;SDS011;64119;52.070;20.804;2023-04-09T04:44:43;13.80;;;7.90;;
75535;SDS011;64119;52.070;20.804;2023-04-09T04:47:14;13.40;;;8.40;;
75535;SDS011;64119;52.070;20.804;2023-04-09T04:49:41;12.80;;;7.40;;
75535;SDS011;64119;52.070;20.804;2023-04-09T04:52:08;15.70;;;8.60;;
75535;SDS011;64119;52.070;20.804;2023-04-09T04:54:35;16.30;;;7.60;;
75535;SDS011;64119;52.070;20.804;2023-04-09T04:57:01;14.30;;;8.30;;
75535;SDS011;64119;52.070;20.804;2023-04-09T04:59:39;12.90;;;7.50;;
75535;SDS011;64119;52.070;20.804;2023-04-09T05:02:08;10.70;;;5.90;;
75535;SDS011;64119;52.070;20.804;2023-04-09T05:04:47;16.10;;;9.70;;
75535;SDS011;64119;52.070;20.804;2023-04-09T05:07:14;13.10;;;7.00;;
75535;SDS011;64119;52.070;20.804;2023-04-09T05:09:47;12.80;;;7.00;;
75535;SDS011;64119;52.070;20.804;2023-04-09T05:12:13;11.60;;;6.80;;
75535;SDS011;64119;52.070;20.804;2023-04-09T05:14:44;15.70;;;7.80;;
75535;SDS011;64119;52.070;20.804;2023-04-09T05:17:10;16.00;;;8.30;;
75535;SDS011;64119;52.070;20.804;2023-04-09T05:19:42;14.50;;;7.70;;
75535;SDS011;64119;52.070;20.804;2023-04-09T05:22:09;13.70;;;7.80;;
75535;SDS011;64119;52.070;20.804;2023-04-09T05:24:35;13.10;;;7.00;;
75535;SDS011;64119;52.070;20.804;2023-04-09T05:27:02;13.90;;;7.60;;
75535;SDS011;64119;52.070;20.804;2023-04-09T05:29:28;13.00;;;8.30;;
75535;SDS011;64119;52.070;20.804;2023-04-09T05:31:55;15.20;;;8.40;;
75535;SDS011;64119;52.070;20.804;2023-04-09T05:34:34;13.10;;;8.00;;
75535;SDS011;64119;52.070;20.804;2023-04-09T05:37:00;9.60;;;5.80;;
75535;SDS011;64119;52.070;20.804;2023-04-09T05:39:27;15.00;;;8.60;;
75535;SDS011;64119;52.070;20.804;2023-04-09T05:41:53;12.30;;;6.40;;
75535;SDS011;64119;52.070;20.804;2023-04-09T05:44:21;11.80;;;7.00;;
75535;SDS011;64119;52.070;20.804;2023-04-09T05:46:48;15.40;;;8.40;;
75535;SDS011;64119;52.070;20.804;2023-04-09T05:49:16;16.50;;;8.80;;
75535;SDS011;64119;52.070;20.804;2023-04-09T05:51:44;13.60;;;8.30;;
75535;SDS011;64119;52.070;20.804;2023-04-09T05:54:13;14.40;;;8.70;;
75535;SDS011;64119;52.070;20.804;2023-04-09T05:56:41;13.30;;;7.60;;
75535;SDS011;64119;52.070;20.804;2023-04-09T05:59:08;14.00;;;7.50;;
75535;SDS011;64119;52.070;20.804;2023-04-09T06:01:34;14.10;;;7.90;;
75535;SDS011;64119;52.070;20.804;2023-04-09T06:04:02;12.80;;;7.70;;
75535;SDS011;64119;52.070;20.804;2023-04-09T06:06:29;12.70;;;7.10;;
75535;SDS011;64119;52.070;20.804;2023-04-09T06:08:56;13.20;;;7.60;;
75535;SDS011;64119;52.070;20.804;2023-04-09T06:11:22;12.80;;;7.10;;
75535;SDS011;64119;52.070;20.804;2023-04-09T06:13:48;10.90;;;6.60;;
75535;SDS011;64119;52.070;20.804;2023-04-09T06:16:15;9.50;;;5.70;;
75535;SDS011;64119;52.070;20.804;2023-04-09T06:18:41;11.70;;;7.20;;
75535;SDS011;64119;52.070;20.804;2023-04-09T06:21:08;12.80;;;6.40;;
75535;SDS011;64119;52.070;20.804;2023-04-09T06:23:34;10.30;;;5.70;;
75535;SDS011;64119;52.070;20.804;2023-04-09T06:26:01;8.00;;;4.30;;
75535;SDS011;64119;52.070;20.804;2023-04-09T06:28:28;9.90;;;5.70;;
75535;SDS011;64119;52.070;20.804;2023-04-09T06:30:55;63.40;;;43.90;;
75535;SDS011;64119;52.070;20.804;2023-04-09T06:33:21;43.40;;;24.80;;
75535;SDS011;64119;52.070;20.804;2023-04-09T06:35:48;13.30;;;8.40;;
75535;SDS011;64119;52.070;20.804;2023-04-09T06:38:14;8.80;;;5.80;;
75535;SDS011;64119;52.070;20.804;2023-04-09T06:40:41;10.50;;;6.70;;
75535;SDS011;64119;52.070;20.804;2023-04-09T06:43:08;12.50;;;7.50;;
75535;SDS011;64119;52.070;20.804;2023-04-09T06:45:41;14.70;;;8.10;;
75535;SDS011;64119;52.070;20.804;2023-04-09T06:48:07;15.10;;;6.40;;
75535;SDS011;64119;52.070;20.804;2023-04-09T06:50:34;32.30;;;16.50;;
75535;SDS011;64119;52.070;20.804;2023-04-09T06:53:01;19.50;;;11.20;;
75535;SDS011;64119;52.070;20.804;2023-04-09T06:55:27;19.20;;;12.10;;
75535;SDS011;64119;52.070;20.804;2023-04-09T06:57:54;44.10;;;24.50;;
75535;SDS011;64119;52.070;20.804;2023-04-09T07:00:20;38.40;;;21.70;;
75535;SDS011;64119;52.070;20.804;2023-04-09T07:02:48;30.60;;;19.20;;
75535;SDS011;64119;52.070;20.804;2023-04-09T07:05:15;12.70;;;7.40;;
75535;SDS011;64119;52.070;20.804;2023-04-09T07:07:42;24.00;;;15.40;;
75535;SDS011;64119;52.070;20.804;2023-04-09T07:10:08;9.10;;;6.00;;
75535;SDS011;64119;52.070;20.804;2023-04-09T07:12:35;7.60;;;5.10;;
75535;SDS011;64119;52.070;20.804;2023-04-09T07:15:02;7.20;;;4.50;;
75535;SDS011;64119;52.070;20.804;2023-04-09T07:17:31;7.50;;;4.20;;
75535;SDS011;64119;52.070;20.804;2023-04-09T07:19:57;8.80;;;5.90;;
75535;SDS011;64119;52.070;20.804;2023-04-09T07:22:24;6.10;;;4.10;;
75535;SDS011;64119;52.070;20.804;2023-04-09T07:24:52;8.20;;;4.80;;
75535;SDS011;64119;52.070;20.804;2023-04-09T07:27:20;10.00;;;6.00;;
75535;SDS011;64119;52.070;20.804;2023-04-09T07:29:48;5.10;;;3.30;;
75535;SDS011;64119;52.070;20.804;2023-04-09T07:32:14;6.50;;;4.60;;
75535;SDS011;64119;52.070;20.804;2023-04-09T07:34:42;8.30;;;5.00;;
75535;SDS011;64119;52.070;20.804;2023-04-09T07:37:09;7.40;;;4.50;;
75535;SDS011;64119;52.070;20.804;2023-04-09T07:39:36;7.80;;;4.70;;
75535;SDS011;64119;52.070;20.804;2023-04-09T07:42:03;7.90;;;5.00;;
75535;SDS011;64119;52.070;20.804;2023-04-09T07:44:33;15.60;;;10.40;;
75535;SDS011;64119;52.070;20.804;2023-04-09T07:47:01;8.50;;;5.40;;
75535;SDS011;64119;52.070;20.804;2023-04-09T07:49:29;8.80;;;5.50;;
75535;SDS011;64119;52.070;20.804;2023-04-09T07:51:56;7.40;;;4.70;;
75535;SDS011;64119;52.070;20.804;2023-04-09T07:54:23;9.10;;;4.60;;
75535;SDS011;64119;52.070;20.804;2023-04-09T07:56:50;7.50;;;4.90;;
75535;SDS011;64119;52.070;20.804;2023-04-09T07:59:17;8.30;;;5.50;;
75535;SDS011;64119;52.070;20.804;2023-04-09T08:01:43;8.00;;;5.30;;
75535;SDS011;64119;52.070;20.804;2023-04-09T08:04:10;7.10;;;4.20;;
75535;SDS011;64119;52.070;20.804;2023-04-09T08:06:38;6.10;;;4.10;;
75535;SDS011;64119;52.070;20.804;2023-04-09T08:09:04;5.10;;;3.20;;
75535;SDS011;64119;52.070;20.804;2023-04-09T08:11:31;11.70;;;7.40;;
75535;SDS011;64119;52.070;20.804;2023-04-09T08:13:58;5.90;;;4.10;;
75535;SDS011;64119;52.070;20.804;2023-04-09T08:16:27;7.10;;;5.00;;
75535;SDS011;64119;52.070;20.804;2023-04-09T08:18:55;7.90;;;4.80;;
75535;SDS011;64119;52.070;20.804;2023-04-09T08:21:22;11.60;;;7.50;;
75535;SDS011;64119;52.070;20.804;2023-04-09T08:23:49;10.20;;;7.10;;
75535;SDS011;64119;52.070;20.804;2023-04-09T08:26:16;24.30;;;15.70;;
75535;SDS011;64119;52.070;20.804;2023-04-09T08:28:42;12.30;;;9.50;;
75535;SDS011;64119;52.070;20.804;2023-04-09T08:31:09;9.10;;;5.80;;
75535;SDS011;64119;52.070;20.804;2023-04-09T08:33:35;10.70;;;6.90;;
75535;SDS011;64119;52.070;20.804;2023-04-09T08:36:01;13.70;;;9.40;;
75535;SDS011;64119;52.070;20.804;2023-04-09T08:38:33;8.50;;;5.80;;
75535;SDS011;64119;52.070;20.804;2023-04-09T08:40:59;8.30;;;5.50;;
75535;SDS011;64119;52.070;20.804;2023-04-09T08:43:26;13.70;;;8.70;;
75535;SDS011;64119;52.070;20.804;2023-04-09T08:46:14;11.00;;;7.00;;
75535;SDS011;64119;52.070;20.804;2023-04-09T08:48:44;5.70;;;4.00;;
75535;SDS011;64119;52.070;20.804;2023-04-09T08:51:12;5.60;;;3.80;;
75535;SDS011;64119;52.070;20.804;2023-04-09T08:53:45;7.90;;;5.50;;
75535;SDS011;64119;52.070;20.804;2023-04-09T08:56:15;9.00;;;5.40;;
75535;SDS011;64119;52.070;20.804;2023-04-09T08:58:42;7.60;;;5.20;;
75535;SDS011;64119;52.070;20.804;2023-04-09T09:01:26;9.70;;;5.90;;
75535;SDS011;64119;52.070;20.804;2023-04-09T09:03:54;7.00;;;4.80;;
75535;SDS011;64119;52.070;20.804;2023-04-09T09:06:24;7.20;;;4.90;;
75535;SDS011;64119;52.070;20.804;2023-04-09T09:09:11;8.80;;;6.00;;
75535;SDS011;64119;52.070;20.804;2023-04-09T09:11:42;7.80;;;5.40;;
75535;SDS011;64119;52.070;20.804;2023-04-09T09:14:10;8.80;;;5.60;;
75535;SDS011;64119;52.070;20.804;2023-04-09T09:16:39;15.50;;;9.90;;
75535;SDS011;64119;52.070;20.804;2023-04-09T09:21:55;8.30;;;5.40;;
75535;SDS011;64119;52.070;20.804;2023-04-09T09:24:25;9.00;;;5.70;;
75535;SDS011;64119;52.070;20.804;2023-04-09T09:26:52;10.00;;;6.30;;
75535;SDS011;64119;52.070;20.804;2023-04-09T09:29:19;14.40;;;7.70;;
75535;SDS011;64119;52.070;20.804;2023-04-09T09:31:47;27.60;;;15.10;;
75535;SDS011;64119;52.070;20.804;2023-04-09T09:34:20;22.00;;;11.70;;
75535;SDS011;64119;52.070;20.804;2023-04-09T09:36:49;34.10;;;19.60;;
75535;SDS011;64119;52.070;20.804;2023-04-09T09:39:16;67.20;;;38.90;;
75535;SDS011;64119;52.070;20.804;2023-04-09T09:41:43;24.60;;;15.20;;
75535;SDS011;64119;52.070;20.804;2023-04-09T09:44:12;14.60;;;8.30;;
75535;SDS011;64119;52.070;20.804;2023-04-09T09:46:56;9.00;;;6.20;;
75535;SDS011;64119;52.070;20.804;2023-04-09T09:49:23;10.20;;;7.10;;
75535;SDS011;64119;52.070;20.804;2023-04-09T09:51:50;19.20;;;12.00;;
75535;SDS011;64119;52.070;20.804;2023-04-09T09:54:21;12.80;;;8.70;;
75535;SDS011;64119;52.070;20.804;2023-04-09T09:56:51;14.20;;;8.30;;
75535;SDS011;64119;52.070;20.804;2023-04-09T09:59:24;9.50;;;6.40;;
75535;SDS011;64119;52.070;20.804;2023-04-09T10:01:56;16.50;;;13.00;;
75535;SDS011;64119;52.070;20.804;2023-04-09T10:04:27;12.10;;;7.30;;
75535;SDS011;64119;52.070;20.804;2023-04-09T10:06:56;13.80;;;8.20;;
75535;SDS011;64119;52.070;20.804;2023-04-09T10:09:23;13.50;;;7.60;;
75535;SDS011;64119;52.070;20.804;2023-04-09T10:11:53;8.80;;;5.70;;
75535;SDS011;64119;52.070;20.804;2023-04-09T10:14:22;11.40;;;7.10;;
75535;SDS011;64119;52.070;20.804;2023-04-09T10:16:51;6.60;;;4.80;;
75535;SDS011;64119;52.070;20.804;2023-04-09T10:19:18;6.90;;;5.00;;
75535;SDS011;64119;52.070;20.804;2023-04-09T10:24:27;9.00;;;6.40;;
75535;SDS011;64119;52.070;20.804;2023-04-09T10:26:54;13.80;;;9.30;;
75535;SDS011;64119;52.070;20.804;2023-04-09T10:29:26;7.70;;;4.70;;
75535;SDS011;64119;52.070;20.804;2023-04-09T10:32:04;11.40;;;7.80;;
75535;SDS011;64119;52.070;20.804;2023-04-09T10:34:36;10.50;;;5.50;;
75535;SDS011;64119;52.070;20.804;2023-04-09T10:37:09;7.60;;;5.30;;
75535;SDS011;64119;52.070;20.804;2023-04-09T10:39:42;9.30;;;6.70;;
75535;SDS011;64119;52.070;20.804;2023-04-09T10:42:12;8.00;;;4.30;;
75535;SDS011;64119;52.070;20.804;2023-04-09T10:44:41;6.60;;;4.30;;
75535;SDS011;64119;52.070;20.804;2023-04-09T10:47:08;7.10;;;5.00;;
75535;SDS011;64119;52.070;20.804;2023-04-09T10:49:38;6.00;;;4.70;;
75535;SDS011;64119;52.070;20.804;2023-04-09T10:52:09;7.30;;;4.90;;
75535;SDS011;64119;52.070;20.804;2023-04-09T10:54:39;7.90;;;5.60;;
75535;SDS011;64119;52.070;20.804;2023-04-09T10:59:43;6.70;;;4.80;;
75535;SDS011;64119;52.070;20.804;2023-04-09T11:07:44;7.50;;;5.00;;
75535;SDS011;64119;52.070;20.804;2023-04-09T11:10:14;9.10;;;4.60;;
75535;SDS011;64119;52.070;20.804;2023-04-09T11:12:41;6.40;;;4.70;;
75535;SDS011;64119;52.070;20.804;2023-04-09T11:15:14;7.00;;;4.90;;
75535;SDS011;64119;52.070;20.804;2023-04-09T11:17:43;8.50;;;6.90;;
75535;SDS011;64119;52.070;20.804;2023-04-09T11:20:12;7.80;;;5.80;;
75535;SDS011;64119;52.070;20.804;2023-04-09T11:22:40;9.20;;;6.20;;
75535;SDS011;64119;52.070;20.804;2023-04-09T11:25:06;7.60;;;4.40;;
75535;SDS011;64119;52.070;20.804;2023-04-09T11:27:36;6.40;;;4.00;;
75535;SDS011;64119;52.070;20.804;2023-04-09T11:30:04;6.80;;;4.60;;
75535;SDS011;64119;52.070;20.804;2023-04-09T11:32:32;6.70;;;4.60;;
75535;SDS011;64119;52.070;20.804;2023-04-09T11:34:58;7.00;;;4.70;;
75535;SDS011;64119;52.070;20.804;2023-04-09T11:37:25;11.50;;;6.60;;
75535;SDS011;64119;52.070;20.804;2023-04-09T11:39:52;10.60;;;6.30;;
75535;SDS011;64119;52.070;20.804;2023-04-09T11:42:23;6.30;;;4.60;;
75535;SDS011;64119;52.070;20.804;2023-04-09T11:44:51;6.40;;;4.40;;
75535;SDS011;64119;52.070;20.804;2023-04-09T11:47:18;5.00;;;3.50;;
75535;SDS011;64119;52.070;20.804;2023-04-09T11:49:46;6.00;;;4.10;;
75535;SDS011;64119;52.070;20.804;2023-04-09T11:52:13;6.00;;;4.30;;
75535;SDS011;64119;52.070;20.804;2023-04-09T11:54:41;5.60;;;4.00;;
75535;SDS011;64119;52.070;20.804;2023-04-09T11:57:13;7.20;;;4.80;;
75535;SDS011;64119;52.070;20.804;2023-04-09T11:59:39;11.50;;;5.80;;
75535;SDS011;64119;52.070;20.804;2023-04-09T12:02:06;5.50;;;4.20;;
75535;SDS011;64119;52.070;20.804;2023-04-09T12:04:33;5.70;;;4.10;;
75535;SDS011;64119;52.070;20.804;2023-04-09T12:07:00;5.60;;;4.10;;
75535;SDS011;64119;52.070;20.804;2023-04-09T12:09:26;7.00;;;5.10;;
75535;SDS011;64119;52.070;20.804;2023-04-09T12:11:53;5.30;;;3.80;;
75535;SDS011;64119;52.070;20.804;2023-04-09T12:14:20;6.60;;;4.60;;
75535;SDS011;64119;52.070;20.804;2023-04-09T12:16:49;6.80;;;5.30;;
75535;SDS011;64119;52.070;20.804;2023-04-09T12:19:17;8.70;;;5.70;;
75535;SDS011;64119;52.070;20.804;2023-04-09T12:21:46;8.60;;;6.30;;
75535;SDS011;64119;52.070;20.804;2023-04-09T12:26:51;7.90;;;5.00;;
75535;SDS011;64119;52.070;20.804;2023-04-09T12:29:18;8.70;;;5.90;;
75535;SDS011;64119;52.070;20.804;2023-04-09T12:31:46;9.80;;;5.90;;
75535;SDS011;64119;52.070;20.804;2023-04-09T12:34:13;8.30;;;6.00;;
75535;SDS011;64119;52.070;20.804;2023-04-09T12:36:39;8.40;;;5.70;;
75535;SDS011;64119;52.070;20.804;2023-04-09T12:39:09;6.60;;;5.00;;
75535;SDS011;64119;52.070;20.804;2023-04-09T12:41:35;7.20;;;5.70;;
75535;SDS011;64119;52.070;20.804;2023-04-09T12:44:02;5.30;;;3.90;;
75535;SDS011;64119;52.070;20.804;2023-04-09T12:46:30;6.80;;;3.80;;
75535;SDS011;64119;52.070;20.804;2023-04-09T12:48:57;6.70;;;4.60;;
75535;SDS011;64119;52.070;20.804;2023-04-09T12:51:23;7.70;;;5.00;;
75535;SDS011;64119;52.070;20.804;2023-04-09T12:53:50;7.60;;;5.00;;
75535;SDS011;64119;52.070;20.804;2023-04-09T12:56:17;6.90;;;4.90;;
75535;SDS011;64119;52.070;20.804;2023-04-09T12:58:44;7.00;;;4.50;;
75535;SDS011;64119;52.070;20.804;2023-04-09T13:01:10;6.60;;;4.10;;
75535;SDS011;64119;52.070;20.804;2023-04-09T13:03:37;5.70;;;4.00;;
75535;SDS011;64119;52.070;20.804;2023-04-09T13:06:06;6.70;;;4.70;;
75535;SDS011;64119;52.070;20.804;2023-04-09T13:08:32;9.40;;;5.30;;
75535;SDS011;64119;52.070;20.804;2023-04-09T13:10:59;7.80;;;4.20;;
75535;SDS011;64119;52.070;20.804;2023-04-09T13:13:25;6.10;;;4.70;;
75535;SDS011;64119;52.070;20.804;2023-04-09T13:15:53;5.90;;;4.50;;
75535;SDS011;64119;52.070;20.804;2023-04-09T13:18:20;7.70;;;4.90;;
75535;SDS011;64119;52.070;20.804;2023-04-09T13:20:46;7.60;;;4.80;;
75535;SDS011;64119;52.070;20.804;2023-04-09T13:23:13;7.50;;;5.10;;
75535;SDS011;64119;52.070;20.804;2023-04-09T13:25:39;7.10;;;4.70;;
75535;SDS011;64119;52.070;20.804;2023-04-09T13:28:05;5.30;;;4.10;;
75535;SDS011;64119;52.070;20.804;2023-04-09T13:30:32;6.90;;;5.40;;
75535;SDS011;64119;52.070;20.804;2023-04-09T13:32:59;5.30;;;4.70;;
75535;SDS011;64119;52.070;20.804;2023-04-09T13:35:25;6.90;;;4.80;;
75535;SDS011;64119;52.070;20.804;2023-04-09T13:37:53;6.10;;;4.60;;
75535;SDS011;64119;52.070;20.804;2023-04-09T13:40:19;7.40;;;5.60;;
75535;SDS011;64119;52.070;20.804;2023-04-09T13:42:46;5.90;;;4.70;;
75535;SDS011;64119;52.070;20.804;2023-04-09T13:45:12;8.50;;;5.10;;
75535;SDS011;64119;52.070;20.804;2023-04-09T13:47:39;5.70;;;3.90;;
75535;SDS011;64119;52.070;20.804;2023-04-09T13:50:06;9.40;;;5.50;;
75535;SDS011;64119;52.070;20.804;2023-04-09T13:52:35;7.10;;;5.30;;
75535;SDS011;64119;52.070;20.804;2023-04-09T13:55:01;6.40;;;4.70;;
75535;SDS011;64119;52.070;20.804;2023-04-09T13:57:28;6.60;;;5.20;;
75535;SDS011;64119;52.070;20.804;2023-04-09T13:59:55;10.60;;;5.40;;
75535;SDS011;64119;52.070;20.804;2023-04-09T14:02:21;8.00;;;5.00;;
75535;SDS011;64119;52.070;20.804;2023-04-09T14:04:48;7.90;;;5.10;;
75535;SDS011;64119;52.070;20.804;2023-04-09T14:07:15;8.00;;;5.90;;
75535;SDS011;64119;52.070;20.804;2023-04-09T14:09:41;8.00;;;5.30;;
75535;SDS011;64119;52.070;20.804;2023-04-09T14:12:08;6.90;;;4.60;;
75535;SDS011;64119;52.070;20.804;2023-04-09T14:14:35;6.80;;;5.20;;
75535;SDS011;64119;52.070;20.804;2023-04-09T14:17:02;6.40;;;4.60;;
75535;SDS011;64119;52.070;20.804;2023-04-09T14:19:28;5.50;;;4.30;;
75535;SDS011;64119;52.070;20.804;2023-04-09T14:21:54;6.20;;;4.00;;
75535;SDS011;64119;52.070;20.804;2023-04-09T14:24:21;5.00;;;3.40;;
75535;SDS011;64119;52.070;20.804;2023-04-09T14:26:48;6.20;;;4.60;;
75535;SDS011;64119;52.070;20.804;2023-04-09T14:29:16;8.20;;;4.50;;
75535;SDS011;64119;52.070;20.804;2023-04-09T14:31:42;6.10;;;4.90;;
75535;SDS011;64119;52.070;20.804;2023-04-09T14:34:09;4.80;;;3.60;;
75535;SDS011;64119;52.070;20.804;2023-04-09T14:36:35;5.80;;;4.40;;
75535;SDS011;64119;52.070;20.804;2023-04-09T14:39:02;4.90;;;3.60;;
75535;SDS011;64119;52.070;20.804;2023-04-09T14:41:28;5.80;;;3.90;;
75535;SDS011;64119;52.070;20.804;2023-04-09T14:43:55;5.70;;;3.60;;
75535;SDS011;64119;52.070;20.804;2023-04-09T14:46:21;4.80;;;3.10;;
75535;SDS011;64119;52.070;20.804;2023-04-09T14:48:47;6.00;;;3.90;;
75535;SDS011;64119;52.070;20.804;2023-04-09T14:51:14;5.80;;;4.00;;
75535;SDS011;64119;52.070;20.804;2023-04-09T14:53:40;5.80;;;4.50;;
75535;SDS011;64119;52.070;20.804;2023-04-09T14:56:07;5.20;;;3.50;;
75535;SDS011;64119;52.070;20.804;2023-04-09T14:58:33;6.90;;;4.70;;
75535;SDS011;64119;52.070;20.804;2023-04-09T15:01:01;10.20;;;6.30;;